createdAt,value
2019-02-28T00:02:22.484Z,11.20
2019-02-28T00:04:51.536Z,10.90
2019-02-28T00:07:21.871Z,10.98
2019-02-28T00:09:52.189Z,12.23
2019-02-28T00:12:22.548Z,15.32
2019-02-28T00:14:54.024Z,12.68
2019-02-28T00:17:24.370Z,14.43
2019-02-28T00:19:55.281Z,13.00
2019-02-28T00:22:26.692Z,15.00
2019-02-28T00:24:57.006Z,13.65
2019-02-28T00:27:27.380Z,10.82
2019-02-28T00:29:57.743Z,14.00
2019-02-28T00:32:28.102Z,11.45
2019-02-28T00:34:58.427Z,11.50
2019-02-28T00:37:28.894Z,15.00
2019-02-28T00:40:00.586Z,14.85
2019-02-28T00:42:32.099Z,11.30
2019-02-28T00:45:03.655Z,13.72
2019-02-28T00:47:34.251Z,15.58
2019-02-28T00:50:04.561Z,14.00
2019-02-28T00:52:35.391Z,18.05
2019-02-28T00:55:06.656Z,14.20
2019-02-28T00:57:37.044Z,15.03
2019-02-28T01:00:07.634Z,12.35
2019-02-28T01:02:38.048Z,17.40
2019-02-28T01:05:08.433Z,13.20
2019-02-28T01:07:38.822Z,12.73
2019-02-28T01:10:09.989Z,11.40
2019-02-28T01:12:40.354Z,14.20
2019-02-28T01:15:11.847Z,11.68
2019-02-28T01:17:42.232Z,9.90
2019-02-28T01:20:16.334Z,11.83
2019-02-28T01:22:45.734Z,12.53
2019-02-28T01:25:16.151Z,12.53
2019-02-28T01:27:46.488Z,14.10
2019-02-28T01:30:16.899Z,13.43
2019-02-28T01:32:50.164Z,11.40
2019-02-28T01:35:19.235Z,14.68
2019-02-28T01:37:52.356Z,13.08
2019-02-28T01:40:21.556Z,14.73
2019-02-28T01:42:54.822Z,9.73
2019-02-28T01:45:23.893Z,10.68
2019-02-28T01:47:54.291Z,11.45
2019-02-28T01:50:24.587Z,11.00
2019-02-28T01:52:54.967Z,13.38
2019-02-28T01:55:25.379Z,13.03
2019-02-28T01:57:55.686Z,11.65
2019-02-28T02:00:27.065Z,10.98
2019-02-28T02:02:57.378Z,11.25
2019-02-28T02:05:27.699Z,13.65
2019-02-28T02:07:58.035Z,9.60
2019-02-28T02:10:28.360Z,10.63
2019-02-28T02:12:58.725Z,11.43
2019-02-28T02:15:29.054Z,9.35
2019-02-28T02:17:59.447Z,13.55
2019-02-28T02:20:29.774Z,10.25
2019-02-28T02:23:00.110Z,8.48
2019-02-28T02:25:30.440Z,10.65
2019-02-28T02:28:03.977Z,9.05
2019-02-28T02:30:34.362Z,11.40
2019-02-28T02:33:04.713Z,9.33
2019-02-28T02:35:35.054Z,9.88
2019-02-28T02:38:05.408Z,9.65
2019-02-28T02:40:35.697Z,9.43
2019-02-28T02:43:06.052Z,13.03
2019-02-28T02:45:41.902Z,9.28
2019-02-28T02:48:08.384Z,9.55
2019-02-28T02:50:38.690Z,10.23
2019-02-28T02:53:09.052Z,8.98
2019-02-28T02:55:39.381Z,10.20
2019-02-28T02:58:09.790Z,9.20
2019-02-28T03:00:40.081Z,9.60
2019-02-28T03:03:10.474Z,7.92
2019-02-28T03:05:40.756Z,14.90
2019-02-28T03:08:11.121Z,7.28
2019-02-28T03:10:41.505Z,9.95
2019-02-28T03:13:11.864Z,10.58
2019-02-28T03:15:42.179Z,8.80
2019-02-28T03:18:12.550Z,8.58
2019-02-28T03:20:42.884Z,9.20
2019-02-28T03:23:13.249Z,10.03
2019-02-28T03:25:43.620Z,10.53
2019-02-28T03:28:14.166Z,11.33
2019-02-28T03:30:44.480Z,9.93
2019-02-28T03:33:24.187Z,10.55
2019-02-28T03:35:46.877Z,9.65
2019-02-28T03:38:17.277Z,10.48
2019-02-28T03:40:47.629Z,10.38
2019-02-28T03:43:18.110Z,9.93
2019-02-28T03:45:48.420Z,9.23
2019-02-28T03:48:18.818Z,8.90
2019-02-28T03:50:49.130Z,9.75
2019-02-28T03:53:20.958Z,11.60
2019-02-28T03:55:51.449Z,10.65
2019-02-28T03:58:21.846Z,9.85
2019-02-28T04:00:52.165Z,12.25
2019-02-28T04:03:22.560Z,11.03
2019-02-28T04:05:53.949Z,11.80
2019-02-28T04:08:29.407Z,11.88
2019-02-28T04:10:56.258Z,9.80
2019-02-28T04:13:26.583Z,13.40
2019-02-28T04:16:08.355Z,11.55
2019-02-28T04:18:28.916Z,12.73
2019-02-28T04:20:59.241Z,12.80
2019-02-28T04:23:35.652Z,8.95
2019-02-28T04:26:01.530Z,11.38
2019-02-28T04:28:31.908Z,11.20
2019-02-28T04:31:02.192Z,10.30
2019-02-28T04:33:37.656Z,10.85
2019-02-28T04:36:04.485Z,11.68
2019-02-28T04:38:34.906Z,10.90
2019-02-28T04:41:05.237Z,11.65
2019-02-28T04:43:35.616Z,13.83
2019-02-28T04:46:05.947Z,11.48
2019-02-28T04:48:36.364Z,11.00
2019-02-28T04:51:06.760Z,13.78
2019-02-28T04:53:37.165Z,12.75
2019-02-28T04:56:11.004Z,11.55
2019-02-28T04:58:39.830Z,13.08
2019-02-28T05:01:12.274Z,11.60
2019-02-28T05:03:42.141Z,13.43
2019-02-28T05:06:13.553Z,13.15
2019-02-28T05:08:43.914Z,10.85
2019-02-28T05:11:14.267Z,12.88
2019-02-28T05:13:48.390Z,10.38
2019-02-28T05:16:16.555Z,13.03
2019-02-28T05:18:46.880Z,13.18
2019-02-28T05:21:19.496Z,15.95
2019-02-28T05:23:49.254Z,13.80
2019-02-28T05:26:19.546Z,13.18
2019-02-28T05:28:49.971Z,11.97
2019-02-28T05:31:20.315Z,14.95
2019-02-28T05:33:50.644Z,13.32
2019-02-28T05:36:20.983Z,14.35
2019-02-28T05:38:55.988Z,14.87
2019-02-28T05:41:23.288Z,11.75
2019-02-28T05:43:53.640Z,13.93
2019-02-28T05:46:24.600Z,14.28
2019-02-28T05:48:56.272Z,12.78
2019-02-28T05:51:27.141Z,13.85
2019-02-28T05:53:57.556Z,14.68
2019-02-28T05:56:32.826Z,11.33
2019-02-28T05:58:59.997Z,12.95
2019-02-28T06:01:30.321Z,14.60
2019-02-28T06:04:03.301Z,17.07
2019-02-28T06:06:32.654Z,15.45
2019-02-28T06:09:04.842Z,16.07
2019-02-28T06:11:35.832Z,17.23
2019-02-28T06:14:06.231Z,14.68
2019-02-28T06:16:36.575Z,15.10
2019-02-28T06:19:08.290Z,13.50
2019-02-28T06:21:38.904Z,13.75
2019-02-28T06:24:09.247Z,14.70
2019-02-28T06:26:39.635Z,13.90
2019-02-28T06:29:09.988Z,15.53
2019-02-28T06:31:40.354Z,14.05
2019-02-28T06:34:10.799Z,17.73
2019-02-28T06:36:41.102Z,13.45
2019-02-28T06:39:11.516Z,15.50
2019-02-28T06:41:41.950Z,16.48
2019-02-28T06:44:12.347Z,14.07
2019-02-28T06:46:42.683Z,19.57
2019-02-28T06:49:13.091Z,17.00
2019-02-28T06:51:43.649Z,14.45
2019-02-28T06:54:14.018Z,13.22
2019-02-28T06:56:44.356Z,14.50
2019-02-28T06:59:14.724Z,19.30
2019-02-28T07:01:45.091Z,16.48
2019-02-28T07:04:15.454Z,20.43
2019-02-28T07:06:45.829Z,17.45
2019-02-28T07:09:16.268Z,16.23
2019-02-28T07:11:46.711Z,18.27
2019-02-28T07:14:17.073Z,19.15
2019-02-28T07:16:47.426Z,19.87
2019-02-28T07:19:17.787Z,21.70
2019-02-28T07:21:48.214Z,22.37
2019-02-28T07:24:18.656Z,26.17
2019-02-28T07:26:52.251Z,23.20
2019-02-28T07:29:21.183Z,23.77
2019-02-28T07:31:51.548Z,23.05
2019-02-28T07:34:23.796Z,27.02
2019-02-28T07:36:53.947Z,25.40
2019-02-28T07:39:24.348Z,20.40
2019-02-28T07:41:54.726Z,23.05
2019-02-28T07:44:25.131Z,28.52
2019-02-28T07:46:55.438Z,27.13
2019-02-28T07:49:26.109Z,23.10
2019-02-28T07:51:57.112Z,24.37
2019-02-28T07:54:28.351Z,25.43
2019-02-28T07:56:58.716Z,27.45
2019-02-28T07:59:29.104Z,30.65
2019-02-28T08:01:59.985Z,28.12
2019-02-28T08:04:31.453Z,28.27
2019-02-28T08:07:01.825Z,28.02
2019-02-28T08:09:33.159Z,28.55
2019-02-28T08:12:05.626Z,31.17
2019-02-28T08:14:35.981Z,32.85
2019-02-28T08:17:08.995Z,32.83
2019-02-28T08:19:38.746Z,30.77
2019-02-28T08:22:09.067Z,31.48
2019-02-28T08:24:39.505Z,31.27
2019-02-28T08:27:09.854Z,30.52
2019-02-28T08:29:44.798Z,35.50
2019-02-28T08:32:12.440Z,33.95
2019-02-28T08:34:42.953Z,35.80
2019-02-28T08:37:13.286Z,32.78
2019-02-28T08:39:43.664Z,31.05
2019-02-28T08:42:13.991Z,33.55
2019-02-28T08:44:44.428Z,36.17
2019-02-28T08:47:17.787Z,35.03
2019-02-28T08:49:46.823Z,34.08
2019-02-28T08:52:17.210Z,32.85
2019-02-28T08:54:47.655Z,36.68
2019-02-28T08:57:18.022Z,36.13
2019-02-28T08:59:52.448Z,36.95
2019-02-28T09:02:21.488Z,40.85
2019-02-28T09:04:51.838Z,36.77
2019-02-28T09:07:22.182Z,36.88
2019-02-28T09:09:52.608Z,38.10
2019-02-28T09:12:22.919Z,39.10
2019-02-28T09:14:55.243Z,33.65
2019-02-28T09:17:25.310Z,38.85
2019-02-28T09:19:55.699Z,37.45
2019-02-28T09:22:27.314Z,37.50
2019-02-28T09:24:58.064Z,42.10
2019-02-28T09:27:28.367Z,37.35
2019-02-28T09:29:58.751Z,38.75
2019-02-28T09:32:30.184Z,41.13
2019-02-28T09:35:02.508Z,43.83
2019-02-28T09:37:32.608Z,38.75
2019-02-28T09:40:02.978Z,41.05
2019-02-28T09:42:33.385Z,44.73
2019-02-28T09:45:07.632Z,37.95
2019-02-28T09:47:37.116Z,39.78
2019-02-28T09:50:09.186Z,41.13
2019-02-28T09:52:41.608Z,41.48
2019-02-28T09:55:11.904Z,39.15
2019-02-28T09:57:42.355Z,42.93
2019-02-28T10:00:17.420Z,41.37
2019-02-28T10:02:47.756Z,40.80
2019-02-28T10:05:18.175Z,36.23
2019-02-28T10:07:48.557Z,37.60
2019-02-28T10:10:21.060Z,37.13
2019-02-28T10:12:53.254Z,38.20
2019-02-28T10:15:23.655Z,39.55
2019-02-28T10:17:53.972Z,36.98
2019-02-28T10:20:27.064Z,43.60
2019-02-28T10:22:57.897Z,37.98
2019-02-28T10:25:29.362Z,40.12
2019-02-28T10:28:02.620Z,45.12
2019-02-28T10:30:32.668Z,43.48
2019-02-28T10:33:03.239Z,51.77
2019-02-28T10:35:36.636Z,46.20
2019-02-28T10:38:05.686Z,47.23
2019-02-28T10:40:36.126Z,44.10
2019-02-28T10:43:06.448Z,46.02
2019-02-28T10:45:41.155Z,46.30
2019-02-28T10:48:08.900Z,41.30
2019-02-28T10:50:39.280Z,44.00
2019-02-28T10:53:09.661Z,47.25
2019-02-28T10:55:40.110Z,48.08
2019-02-28T10:58:12.512Z,45.85
2019-02-28T11:00:44.275Z,50.33
2019-02-28T11:03:14.767Z,40.80
2019-02-28T11:05:45.657Z,39.08
2019-02-28T11:08:18.867Z,44.53
2019-02-28T11:10:48.627Z,44.60
2019-02-28T11:13:19.492Z,36.68
2019-02-28T11:15:50.056Z,46.08
2019-02-28T11:18:20.381Z,39.63
2019-02-28T11:20:50.740Z,39.63
2019-02-28T11:23:22.586Z,42.88
2019-02-28T11:25:53.087Z,46.92
2019-02-28T11:28:27.966Z,42.17
2019-02-28T11:30:55.353Z,44.30
2019-02-28T11:33:25.912Z,57.50
2019-02-28T11:35:59.012Z,41.15
2019-02-28T11:38:28.287Z,40.15
2019-02-28T11:40:58.696Z,44.83
2019-02-28T11:43:29.032Z,39.18
2019-02-28T11:46:00.634Z,41.83
2019-02-28T11:48:32.743Z,37.45
2019-02-28T11:51:03.171Z,36.08
2019-02-28T11:53:39.322Z,36.63
2019-02-28T11:56:05.766Z,38.55
2019-02-28T11:58:36.193Z,38.15
2019-02-28T12:01:09.989Z,39.75
2019-02-28T12:03:38.582Z,37.23
2019-02-28T12:06:08.992Z,38.13
2019-02-28T12:08:41.489Z,43.35
2019-02-28T12:11:11.312Z,35.98
2019-02-28T12:13:41.679Z,42.93
2019-02-28T12:16:12.092Z,41.68
2019-02-28T12:18:42.459Z,40.35
2019-02-28T12:21:12.866Z,40.95
2019-02-28T12:23:43.170Z,40.75
2019-02-28T12:26:14.334Z,45.43
2019-02-28T12:28:45.499Z,37.63
2019-02-28T12:31:15.899Z,39.13
2019-02-28T12:33:46.633Z,39.50
2019-02-28T12:36:17.006Z,38.05
2019-02-28T12:38:48.701Z,40.95
2019-02-28T12:41:21.593Z,45.12
2019-02-28T12:43:51.036Z,41.48
2019-02-28T12:46:21.389Z,38.53
2019-02-28T12:48:51.716Z,41.00
2019-02-28T12:51:22.148Z,44.15
2019-02-28T12:53:52.474Z,42.60
2019-02-28T12:56:23.785Z,44.00
2019-02-28T12:58:54.108Z,40.60
2019-02-28T13:01:24.496Z,41.85
2019-02-28T13:04:00.239Z,38.23
2019-02-28T13:06:26.828Z,41.63
2019-02-28T13:08:57.173Z,39.90
2019-02-28T13:11:28.014Z,41.75
2019-02-28T13:14:00.081Z,44.27
2019-02-28T13:16:30.280Z,41.88
2019-02-28T13:19:01.992Z,42.48
2019-02-28T13:21:32.360Z,43.40
2019-02-28T13:24:06.069Z,48.02
2019-02-28T13:26:35.766Z,44.15
2019-02-28T13:29:06.399Z,39.83
2019-02-28T13:31:36.762Z,43.23
2019-02-28T13:34:07.082Z,42.98
2019-02-28T13:36:37.464Z,48.52
2019-02-28T13:39:10.080Z,49.88
2019-02-28T13:41:40.434Z,48.87
2019-02-28T13:44:10.761Z,47.10
2019-02-28T13:46:41.191Z,45.88
2019-02-28T13:49:12.770Z,48.58
2019-02-28T13:51:43.638Z,38.48
2019-02-28T13:54:14.204Z,45.43
2019-02-28T13:56:44.552Z,50.05
2019-02-28T13:59:14.890Z,47.78
2019-02-28T14:01:45.259Z,43.68
2019-02-28T14:04:18.718Z,44.33
2019-02-28T14:06:47.611Z,53.23
2019-02-28T14:09:18.945Z,48.68
2019-02-28T14:11:51.801Z,46.20
2019-02-28T14:14:22.331Z,46.80
2019-02-28T14:16:52.776Z,47.13
2019-02-28T14:19:23.176Z,48.75
2019-02-28T14:21:53.521Z,50.73
2019-02-28T14:24:23.843Z,46.80
2019-02-28T14:26:54.227Z,45.63
2019-02-28T14:29:24.619Z,48.45
2019-02-28T14:31:55.073Z,51.25
2019-02-28T14:34:27.253Z,48.58
2019-02-28T14:36:57.611Z,51.42
2019-02-28T14:39:27.948Z,49.27
2019-02-28T14:41:58.319Z,47.15
2019-02-28T14:44:31.567Z,51.00
2019-02-28T14:47:00.626Z,47.83
2019-02-28T14:49:31.087Z,46.20
2019-02-28T14:52:03.650Z,50.40
2019-02-28T14:54:34.448Z,47.30
2019-02-28T14:57:04.792Z,48.90
2019-02-28T14:59:35.194Z,53.08
2019-02-28T15:02:05.534Z,45.65
2019-02-28T15:04:35.952Z,49.55
2019-02-28T15:07:06.250Z,48.87
2019-02-28T15:09:36.679Z,50.35
2019-02-28T15:12:07.004Z,44.93
2019-02-28T15:14:37.324Z,51.70
2019-02-28T15:17:07.726Z,54.27
2019-02-28T15:19:38.086Z,51.42
2019-02-28T15:22:08.509Z,55.35
2019-02-28T15:24:40.555Z,56.73
2019-02-28T15:27:11.917Z,49.73
2019-02-28T15:29:42.380Z,51.73
2019-02-28T15:32:14.188Z,51.63
2019-02-28T15:34:44.771Z,55.78
2019-02-28T15:37:15.113Z,59.23
2019-02-28T15:39:45.484Z,62.00
2019-02-28T15:42:15.974Z,54.98
2019-02-28T15:44:46.359Z,58.63
2019-02-28T15:47:19.392Z,57.40
2019-02-28T15:49:49.184Z,58.50
2019-02-28T15:52:19.497Z,57.38
2019-02-28T15:54:49.912Z,59.15
2019-02-28T15:57:20.270Z,57.27
2019-02-28T15:59:50.657Z,57.88
2019-02-28T16:02:20.970Z,62.78
2019-02-28T16:04:51.347Z,60.25
2019-02-28T16:07:21.715Z,62.45
2019-02-28T16:09:54.101Z,57.40
2019-02-28T16:12:24.171Z,58.58
2019-02-28T16:14:54.621Z,61.95
2019-02-28T16:17:24.995Z,65.83
2019-02-28T16:19:56.232Z,56.73
2019-02-28T16:22:27.279Z,69.17
2019-02-28T16:24:57.647Z,61.02
2019-02-28T16:27:29.502Z,63.13
2019-02-28T16:30:02.356Z,60.35
2019-02-28T16:32:34.256Z,64.05
2019-02-28T16:35:04.833Z,62.25
2019-02-28T16:37:35.808Z,57.38
2019-02-28T16:40:08.136Z,68.80
2019-02-28T16:42:38.529Z,65.78
2019-02-28T16:45:13.215Z,64.07
2019-02-28T16:47:43.536Z,59.20
2019-02-28T16:50:15.317Z,65.50
2019-02-28T16:52:45.945Z,63.05
2019-02-28T16:55:16.383Z,66.80
2019-02-28T16:57:47.044Z,63.73
2019-02-28T17:00:18.785Z,65.95
2019-02-28T17:02:49.104Z,60.58
2019-02-28T17:05:19.492Z,54.95
2019-02-28T17:07:50.855Z,60.15
2019-02-28T17:10:23.822Z,65.78
2019-02-28T17:13:11.860Z,61.45
2019-02-28T17:16:01.477Z,60.67
2019-02-28T17:18:29.273Z,63.45
2019-02-28T17:20:59.692Z,57.58
2019-02-28T17:23:30.016Z,62.13
2019-02-28T17:26:00.682Z,64.37
2019-02-28T17:29:06.185Z,62.60
2019-02-28T17:31:44.498Z,66.72
2019-02-28T17:34:23.880Z,60.65
2019-02-28T17:36:52.189Z,58.95
2019-02-28T17:39:22.528Z,65.85
2019-02-28T17:41:52.958Z,61.65
2019-02-28T17:44:57.855Z,67.70
2019-02-28T17:48:09.639Z,60.35
2019-02-28T17:51:14.997Z,57.00
2019-02-28T17:54:23.972Z,56.92
2019-02-28T17:57:34.482Z,60.10
2019-02-28T18:00:38.632Z,61.60
2019-02-28T18:03:32.806Z,59.75
2019-02-28T18:07:11.839Z,65.05
2019-02-28T18:10:26.078Z,59.85
2019-02-28T18:13:12.510Z,55.75
2019-02-28T18:16:23.392Z,73.02
2019-02-28T18:19:30.515Z,58.30
2019-02-28T18:22:27.183Z,56.80
2019-02-28T18:25:33.554Z,54.53
2019-02-28T18:28:30.720Z,55.28
2019-02-28T18:31:19.174Z,52.00
2019-02-28T18:34:01.272Z,53.58
2019-02-28T18:36:32.468Z,49.73
2019-02-28T18:39:03.406Z,50.98
2019-02-28T18:41:35.456Z,54.67
2019-02-28T18:44:07.669Z,51.08
2019-02-28T18:46:38.261Z,49.18
2019-02-28T18:49:08.835Z,49.60
2019-02-28T18:51:39.160Z,56.53
2019-02-28T18:54:10.292Z,51.42
2019-02-28T18:56:40.872Z,52.10
2019-02-28T18:59:12.459Z,51.80
2019-02-28T19:01:42.781Z,51.00
2019-02-28T19:04:13.161Z,51.23
2019-02-28T19:06:43.619Z,54.90
2019-02-28T19:09:20.653Z,53.85
2019-02-28T19:11:50.978Z,59.15
2019-02-28T19:14:21.411Z,53.85
2019-02-28T19:16:51.813Z,46.05
2019-02-28T19:19:22.233Z,56.15
2019-02-28T19:21:52.670Z,50.23
2019-02-28T19:24:23.079Z,48.90
2019-02-28T19:26:54.478Z,52.85
2019-02-28T19:29:24.853Z,49.50
2019-02-28T19:31:55.238Z,57.27
2019-02-28T19:34:25.723Z,51.20
2019-02-28T19:36:56.085Z,47.65
2019-02-28T19:39:26.480Z,53.65
2019-02-28T19:41:56.900Z,50.88
2019-02-28T19:44:27.335Z,52.78
2019-02-28T19:46:57.780Z,54.65
2019-02-28T19:49:28.139Z,55.08
2019-02-28T19:51:58.475Z,47.98
2019-02-28T19:54:28.846Z,49.95
2019-02-28T19:56:59.208Z,50.88
2019-02-28T19:59:29.611Z,49.53
2019-02-28T20:01:59.915Z,51.55
2019-02-28T20:04:30.295Z,50.73
2019-02-28T20:07:00.618Z,55.05
2019-02-28T20:09:31.092Z,54.38
2019-02-28T20:12:01.519Z,51.83
2019-02-28T20:14:32.049Z,54.65
2019-02-28T20:17:02.366Z,53.42
2019-02-28T20:19:33.817Z,54.55
2019-02-28T20:22:04.156Z,53.15
2019-02-28T20:24:34.523Z,59.90
2019-02-28T20:27:04.968Z,71.42
2019-02-28T20:29:35.412Z,53.33
2019-02-28T20:32:05.861Z,51.28
2019-02-28T20:34:36.312Z,50.85
2019-02-28T20:37:06.743Z,56.13
2019-02-28T20:39:37.219Z,51.83
2019-02-28T20:42:07.527Z,62.10
2019-02-28T20:44:37.977Z,51.95
2019-02-28T20:47:08.439Z,52.62
2019-02-28T20:49:38.834Z,52.53
2019-02-28T20:52:09.188Z,53.33
2019-02-28T20:54:39.577Z,58.48
2019-02-28T20:57:10.929Z,52.90
2019-02-28T20:59:42.719Z,51.50
2019-02-28T21:02:13.046Z,52.25
2019-02-28T21:04:43.541Z,60.38
2019-02-28T21:07:14.097Z,55.10
2019-02-28T21:09:45.100Z,55.12
2019-02-28T21:12:15.557Z,58.35
2019-02-28T21:14:57.688Z,56.45
2019-02-28T21:17:29.705Z,53.87
2019-02-28T21:20:19.317Z,60.70
2019-02-28T21:22:49.689Z,60.17
2019-02-28T21:25:20.111Z,60.63
2019-02-28T21:27:50.551Z,57.40
2019-02-28T21:30:22.123Z,61.92
2019-02-28T21:32:52.566Z,60.75
2019-02-28T21:35:23.504Z,53.38
2019-02-28T21:37:53.946Z,59.65
2019-02-28T21:40:43.562Z,60.58
2019-02-28T21:43:14.049Z,71.10
2019-02-28T21:45:44.557Z,58.15
2019-02-28T21:48:14.888Z,68.50
2019-02-28T21:50:45.384Z,58.50
2019-02-28T21:53:15.829Z,65.78
2019-02-28T21:55:46.443Z,58.63
2019-02-28T21:58:16.865Z,73.87
2019-02-28T22:00:47.285Z,72.25
2019-02-28T22:03:17.619Z,64.07
2019-02-28T22:05:48.035Z,68.25
2019-02-28T22:08:18.408Z,64.62
2019-02-28T22:10:48.759Z,66.12
2019-02-28T22:13:19.090Z,68.70
2019-02-28T22:15:49.462Z,69.50
2019-02-28T22:18:19.789Z,70.47
2019-02-28T22:20:50.170Z,68.72
2019-02-28T22:23:20.507Z,68.67
2019-02-28T22:25:50.959Z,65.62
2019-02-28T22:28:21.301Z,63.35
2019-02-28T22:31:10.623Z,68.37
2019-02-28T22:33:50.932Z,68.17
2019-02-28T22:36:25.436Z,61.65
2019-02-28T22:38:55.808Z,76.12
2019-02-28T22:41:26.171Z,66.35
2019-02-28T22:43:56.491Z,68.22
2019-02-28T22:46:26.842Z,76.20
2019-02-28T22:48:57.148Z,65.42
2019-02-28T22:51:27.547Z,70.85
2019-02-28T22:53:57.878Z,74.35
2019-02-28T22:56:28.212Z,73.78
2019-02-28T22:58:58.607Z,70.08
2019-02-28T23:01:29.271Z,67.32
2019-02-28T23:03:59.665Z,73.10
2019-02-28T23:06:30.012Z,64.10
2019-02-28T23:09:00.394Z,72.60
2019-02-28T23:11:32.403Z,78.42
2019-02-28T23:14:02.748Z,78.07
2019-02-28T23:16:33.078Z,72.15
2019-02-28T23:19:03.431Z,71.15
2019-02-28T23:21:33.785Z,78.85
2019-02-28T23:24:04.102Z,73.15
2019-02-28T23:27:02.814Z,66.62
2019-02-28T23:29:33.115Z,90.15
2019-02-28T23:32:31.112Z,82.27
2019-02-28T23:35:01.457Z,81.12
2019-02-28T23:37:31.787Z,72.32
2019-02-28T23:40:02.110Z,83.00
2019-02-28T23:42:33.540Z,80.40
2019-02-28T23:45:03.861Z,75.65
2019-02-28T23:47:34.274Z,79.97
2019-02-28T23:50:05.224Z,87.90
2019-02-28T23:52:35.555Z,88.20
2019-02-28T23:55:06.089Z,77.53
2019-02-28T23:57:36.446Z,80.10
